createdAt,value
2023-05-09T00:01:45.765Z,11.10
2023-05-09T00:06:49.397Z,12.10
2023-05-09T00:11:54.957Z,12.83
2023-05-09T00:16:59.448Z,11.40
2023-05-09T00:22:03.140Z,12.43
2023-05-09T00:27:08.296Z,12.07
2023-05-09T00:32:12.209Z,12.53
2023-05-09T00:37:18.603Z,12.43
2023-05-09T00:42:23.518Z,12.93
2023-05-09T00:47:28.893Z,11.97
2023-05-09T00:52:34.496Z,12.23
2023-05-09T00:57:39.390Z,12.27
2023-05-09T01:02:43.322Z,12.20
2023-05-09T01:07:51.512Z,13.50
2023-05-09T01:13:00.548Z,13.37
2023-05-09T01:18:07.922Z,13.47
2023-05-09T01:23:23.699Z,13.70
2023-05-09T01:28:36.114Z,13.63
2023-05-09T01:33:42.905Z,15.00
2023-05-09T01:38:49.313Z,15.57
2023-05-09T01:43:53.603Z,15.60
2023-05-09T01:48:58.866Z,17.60
2023-05-09T01:54:03.075Z,15.63
2023-05-09T01:59:07.877Z,15.97
2023-05-09T02:04:13.239Z,16.47
2023-05-09T02:09:17.136Z,16.23
2023-05-09T02:14:20.848Z,15.30
2023-05-09T02:19:26.455Z,15.73
2023-05-09T02:24:30.400Z,16.60
2023-05-09T02:29:40.632Z,16.10
2023-05-09T02:34:47.026Z,16.47
2023-05-09T02:39:50.472Z,15.60
2023-05-09T02:44:54.195Z,15.07
2023-05-09T02:49:59.128Z,16.33
2023-05-09T02:55:03.149Z,16.00
2023-05-09T03:00:09.860Z,16.87
2023-05-09T03:05:14.832Z,15.37
2023-05-09T03:10:19.739Z,15.57
2023-05-09T03:15:23.830Z,15.10
2023-05-09T03:20:29.760Z,13.97
2023-05-09T03:25:33.559Z,14.00
2023-05-09T03:30:37.420Z,12.90
2023-05-09T03:35:47.054Z,13.07
2023-05-09T03:40:50.645Z,13.40
2023-05-09T03:45:54.998Z,12.50
2023-05-09T03:51:01.185Z,13.60
2023-05-09T03:56:07.794Z,12.97
2023-05-09T04:01:18.068Z,13.33
2023-05-09T04:06:24.238Z,12.33
2023-05-09T04:11:27.970Z,11.97
2023-05-09T04:16:33.409Z,12.80
2023-05-09T04:21:38.551Z,12.90
2023-05-09T04:26:43.129Z,12.67
2023-05-09T04:31:50.078Z,12.43
2023-05-09T04:36:56.161Z,13.57
2023-05-09T04:42:00.214Z,12.50
2023-05-09T04:47:04.084Z,13.63
2023-05-09T04:52:08.896Z,11.23
2023-05-09T04:57:17.828Z,13.20
2023-05-09T05:02:26.193Z,13.63
2023-05-09T05:07:33.157Z,11.77
2023-05-09T05:12:37.021Z,10.83
2023-05-09T05:17:43.655Z,11.10
2023-05-09T05:22:54.670Z,8.83
2023-05-09T05:27:59.319Z,10.43
2023-05-09T05:33:03.245Z,9.93
2023-05-09T05:38:08.847Z,10.60
2023-05-09T05:43:13.635Z,10.13
2023-05-09T05:48:17.095Z,11.63
2023-05-09T05:53:21.881Z,12.10
2023-05-09T05:58:27.035Z,11.60
2023-05-09T06:03:31.001Z,11.97
2023-05-09T06:08:39.978Z,11.20
2023-05-09T06:13:44.010Z,11.13
2023-05-09T06:18:48.490Z,10.80
2023-05-09T06:29:00.872Z,10.53
2023-05-09T06:34:04.555Z,9.20
2023-05-09T06:39:09.405Z,9.63
2023-05-09T06:44:13.351Z,8.93
2023-05-09T06:49:16.859Z,9.20
2023-05-09T06:54:22.144Z,8.53
2023-05-09T06:59:27.187Z,7.90
2023-05-09T07:04:30.531Z,8.10
2023-05-09T07:09:35.823Z,7.53
2023-05-09T07:14:39.117Z,8.20
2023-05-09T07:19:42.889Z,7.47
2023-05-09T07:24:47.622Z,7.17
2023-05-09T07:29:52.693Z,7.43
2023-05-09T07:34:56.920Z,7.40
2023-05-09T07:40:01.864Z,6.60
2023-05-09T07:45:06.261Z,5.90
2023-05-09T07:50:10.371Z,6.43
2023-05-09T07:55:15.499Z,6.40
2023-05-09T08:00:23.828Z,33.07
2023-05-09T08:05:27.360Z,5.73
2023-05-09T08:10:33.821Z,5.43
2023-05-09T08:15:37.284Z,5.32
2023-05-09T08:20:41.026Z,5.35
2023-05-09T08:25:46.083Z,6.28
2023-05-09T08:30:49.751Z,5.80
2023-05-09T08:35:54.149Z,2.80
2023-05-09T08:41:03.694Z,4.22
2023-05-09T08:46:08.960Z,1.38
2023-05-09T08:51:13.538Z,0.10
2023-05-09T08:56:20.269Z,0.13
2023-05-09T09:01:24.460Z,0.20
2023-05-09T09:06:30.276Z,0.10
2023-05-09T09:11:36.121Z,0.10
2023-05-09T09:16:41.310Z,0.10
2023-05-09T09:21:46.937Z,0.10
2023-05-09T09:26:53.295Z,0.10
2023-05-09T09:32:03.013Z,0.10
2023-05-09T09:37:08.023Z,0.10
2023-05-09T09:42:16.932Z,0.10
2023-05-09T09:47:23.044Z,0.10
2023-05-09T09:52:31.967Z,0.10
2023-05-09T09:57:41.676Z,0.10
2023-05-09T10:02:50.890Z,0.10
2023-05-09T10:07:58.919Z,0.10
2023-05-09T10:13:05.799Z,0.10
2023-05-09T10:18:12.407Z,0.05
2023-05-09T10:23:16.992Z,0.10
2023-05-09T10:28:25.948Z,0.20
2023-05-09T10:33:33.356Z,0.00
2023-05-09T10:38:38.805Z,0.25
2023-05-09T10:43:44.712Z,0.10
2023-05-09T10:48:49.312Z,0.10
2023-05-09T10:53:53.036Z,0.10
2023-05-09T10:58:58.257Z,0.00
2023-05-09T11:04:02.479Z,0.10
2023-05-09T11:09:21.789Z,0.10
2023-05-09T11:14:34.433Z,0.05
2023-05-09T11:19:39.738Z,0.00
2023-05-09T11:24:46.464Z,0.05
2023-05-09T11:29:54.395Z,0.10
2023-05-09T11:35:07.608Z,0.00
2023-05-09T11:40:13.672Z,0.10
2023-05-09T11:45:19.077Z,0.10
2023-05-09T11:50:22.711Z,0.08
2023-05-09T11:55:30.562Z,0.10
2023-05-09T12:00:37.319Z,0.08
2023-05-09T12:05:42.736Z,0.00
2023-05-09T12:10:46.533Z,0.13
2023-05-09T12:15:52.520Z,0.15
2023-05-09T12:20:56.325Z,0.10
2023-05-09T12:25:59.950Z,0.10
2023-05-09T12:31:05.972Z,0.10
2023-05-09T12:36:11.359Z,0.70
2023-05-09T12:41:31.017Z,0.10
2023-05-09T12:46:40.568Z,0.00
2023-05-09T12:51:49.888Z,0.10
2023-05-09T12:56:55.702Z,0.00
2023-05-09T13:02:02.024Z,0.10
2023-05-09T13:07:10.496Z,0.08
2023-05-09T13:12:14.439Z,0.10
2023-05-09T13:17:20.604Z,0.10
2023-05-09T13:22:29.587Z,0.10
2023-05-09T13:27:33.904Z,0.13
2023-05-09T13:32:38.962Z,0.10
2023-05-09T13:37:43.036Z,0.00
2023-05-09T13:42:48.909Z,0.10
2023-05-09T13:47:53.762Z,0.10
2023-05-09T13:52:57.379Z,0.10
2023-05-09T13:58:00.955Z,0.13
2023-05-09T14:03:06.099Z,0.10
2023-05-09T14:08:09.833Z,0.10
2023-05-09T14:13:13.450Z,0.00
2023-05-09T14:18:20.757Z,0.10
2023-05-09T14:23:24.978Z,0.43
2023-05-09T14:28:28.648Z,0.13
2023-05-09T14:33:34.954Z,0.10
2023-05-09T14:38:38.354Z,0.10
2023-05-09T14:43:41.707Z,0.10
2023-05-09T14:48:46.331Z,0.10
2023-05-09T14:53:49.729Z,0.10
2023-05-09T14:58:52.871Z,0.10
2023-05-09T15:03:57.715Z,0.10
2023-05-09T15:09:01.361Z,0.10
2023-05-09T15:14:06.309Z,0.10
2023-05-09T15:19:11.137Z,0.10
2023-05-09T15:24:14.435Z,0.10
2023-05-09T15:29:17.687Z,0.10
2023-05-09T15:34:22.900Z,0.10
2023-05-09T15:39:27.225Z,0.10
2023-05-09T15:44:30.546Z,0.10
2023-05-09T15:49:35.648Z,0.10
2023-05-09T15:54:40.089Z,0.10
2023-05-09T15:59:43.393Z,0.10
2023-05-09T16:04:48.027Z,0.10
2023-05-09T16:09:51.415Z,0.10
2023-05-09T16:14:54.710Z,0.10
2023-05-09T16:20:01.054Z,0.50
2023-05-09T16:25:04.472Z,0.10
2023-05-09T16:30:08.616Z,0.10
2023-05-09T16:35:13.351Z,0.20
2023-05-09T16:40:16.951Z,0.10
2023-05-09T16:45:20.598Z,0.10
2023-05-09T16:50:26.079Z,0.10
2023-05-09T16:55:29.561Z,0.10
2023-05-09T17:00:33.000Z,0.10
2023-05-09T17:05:37.808Z,0.10
2023-05-09T17:10:42.207Z,0.10
2023-05-09T17:15:45.910Z,0.10
2023-05-09T17:20:51.147Z,0.10
2023-05-09T17:25:54.490Z,0.10
2023-05-09T17:30:59.139Z,0.10
2023-05-09T17:36:03.918Z,0.83
2023-05-09T17:41:07.280Z,0.10
2023-05-09T17:46:10.699Z,0.10
2023-05-09T17:51:15.565Z,0.10
2023-05-09T17:56:18.866Z,0.10
2023-05-09T18:01:22.087Z,0.10
2023-05-09T18:06:26.977Z,0.10
2023-05-09T18:11:30.503Z,0.10
2023-05-09T18:16:38.148Z,0.10
2023-05-09T18:21:43.899Z,0.10
2023-05-09T18:26:48.170Z,0.10
2023-05-09T18:31:51.531Z,0.10
2023-05-09T18:36:57.559Z,0.10
2023-05-09T18:42:00.896Z,0.10
2023-05-09T18:47:06.957Z,0.17
2023-05-09T18:52:12.925Z,0.20
2023-05-09T18:57:16.490Z,0.10
2023-05-09T19:02:20.609Z,0.10
2023-05-09T19:07:25.474Z,0.10
2023-05-09T19:12:29.434Z,0.10
2023-05-09T19:17:33.201Z,0.10
2023-05-09T19:22:39.343Z,0.10
2023-05-09T19:27:42.826Z,0.10
2023-05-09T19:32:46.648Z,0.10
2023-05-09T19:37:51.667Z,0.20
2023-05-09T19:42:55.103Z,0.20
2023-05-09T19:47:58.607Z,0.10
2023-05-09T19:53:03.516Z,0.20
2023-05-09T19:58:07.203Z,0.10
2023-05-09T20:03:10.945Z,0.17
2023-05-09T20:08:16.118Z,0.10
2023-05-09T20:13:20.088Z,0.10
2023-05-09T20:18:23.978Z,0.20
2023-05-09T20:23:29.483Z,0.20
2023-05-09T20:28:33.180Z,0.10
2023-05-09T20:33:36.764Z,0.10
2023-05-09T20:38:41.759Z,0.10
2023-05-09T20:43:45.502Z,0.20
2023-05-09T20:48:49.317Z,0.10
2023-05-09T20:53:54.483Z,0.10
2023-05-09T20:59:00.336Z,0.10
2023-05-09T21:04:04.407Z,0.20
2023-05-09T21:09:09.405Z,0.20
2023-05-09T21:14:13.181Z,0.10
2023-05-09T21:19:16.609Z,0.20
2023-05-09T21:24:21.913Z,0.10
2023-05-09T21:29:25.300Z,0.17
2023-05-09T21:34:28.844Z,0.10
2023-05-09T21:39:33.676Z,0.10
2023-05-09T21:44:37.181Z,0.20
2023-05-09T21:49:41.104Z,0.10
2023-05-09T21:54:46.958Z,0.10
2023-05-09T21:59:50.676Z,0.20
2023-05-09T22:04:54.045Z,0.10
2023-05-09T22:09:58.770Z,0.23
2023-05-09T22:15:02.453Z,0.10
2023-05-09T22:20:06.642Z,0.10
2023-05-09T22:25:12.776Z,0.20
2023-05-09T22:30:17.000Z,0.20
2023-05-09T22:35:20.580Z,0.20
2023-05-09T22:40:26.728Z,0.20
2023-05-09T22:45:30.559Z,0.10
2023-05-09T22:50:35.427Z,0.10
2023-05-09T22:55:40.933Z,0.10
2023-05-09T23:00:44.377Z,0.20
2023-05-09T23:05:48.137Z,0.10
2023-05-09T23:10:53.144Z,0.10
2023-05-09T23:15:56.600Z,0.20
2023-05-09T23:21:03.557Z,0.10
2023-05-09T23:26:10.245Z,0.10
2023-05-09T23:31:13.985Z,0.10
2023-05-09T23:36:17.675Z,0.20
2023-05-09T23:41:23.066Z,0.20
2023-05-09T23:46:26.636Z,0.20
2023-05-09T23:51:30.150Z,0.10
2023-05-09T23:56:35.224Z,0.10
